sensor_id;sensor_type;location;lat;lon;timestamp;pressure;altitude;pressure_sealevel;temperature
60003;BMP280;46322;52.018;8.702;2023-03-23T00:04:55;99125.91;;;19.79
60003;BMP280;46322;52.018;8.702;2023-03-23T00:09:55;99126.72;;;19.99
60003;BMP280;46322;52.018;8.702;2023-03-23T00:14:55;99122.72;;;20.73
60003;BMP280;46322;52.018;8.702;2023-03-23T00:19:56;99122.06;;;19.80
60003;BMP280;46322;52.018;8.702;2023-03-23T00:24:56;99110.34;;;19.09
60003;BMP280;46322;52.018;8.702;2023-03-23T00:29:56;99112.91;;;20.00
60003;BMP280;46322;52.018;8.702;2023-03-23T00:34:56;99105.94;;;19.22
60003;BMP280;46322;52.018;8.702;2023-03-23T00:39:57;99100.50;;;18.65
60003;BMP280;46322;52.018;8.702;2023-03-23T00:44:57;99103.69;;;18.90
60003;BMP280;46322;52.018;8.702;2023-03-23T00:49:57;99095.19;;;18.61
60003;BMP280;46322;52.018;8.702;2023-03-23T00:54:57;99083.50;;;18.79
60003;BMP280;46322;52.018;8.702;2023-03-23T00:59:58;99083.53;;;20.10
60003;BMP280;46322;52.018;8.702;2023-03-23T01:04:58;99079.84;;;19.50
60003;BMP280;46322;52.018;8.702;2023-03-23T01:09:58;99079.19;;;19.92
60003;BMP280;46322;52.018;8.702;2023-03-23T01:14:58;99069.16;;;19.73
60003;BMP280;46322;52.018;8.702;2023-03-23T01:19:58;99058.88;;;19.14
60003;BMP280;46322;52.018;8.702;2023-03-23T01:24:58;99049.16;;;18.29
60003;BMP280;46322;52.018;8.702;2023-03-23T01:29:59;99047.91;;;19.55
60003;BMP280;46322;52.018;8.702;2023-03-23T01:34:59;99052.25;;;18.24
60003;BMP280;46322;52.018;8.702;2023-03-23T01:39:59;99038.47;;;18.22
60003;BMP280;46322;52.018;8.702;2023-03-23T01:50:18;99053.00;;;19.23
60003;BMP280;46322;52.018;8.702;2023-03-23T01:55:19;99052.31;;;19.92
60003;BMP280;46322;52.018;8.702;2023-03-23T02:00:20;99038.22;;;18.81
60003;BMP280;46322;52.018;8.702;2023-03-23T02:05:28;99033.22;;;19.36
60003;BMP280;46322;52.018;8.702;2023-03-23T02:10:30;99032.19;;;19.04
60003;BMP280;46322;52.018;8.702;2023-03-23T02:15:42;99034.91;;;20.00
60003;BMP280;46322;52.018;8.702;2023-03-23T02:35:54;99029.44;;;19.07
60003;BMP280;46322;52.018;8.702;2023-03-23T02:40:56;99019.44;;;18.77
60003;BMP280;46322;52.018;8.702;2023-03-23T02:45:59;99016.06;;;20.40
60003;BMP280;46322;52.018;8.702;2023-03-23T02:51:00;99028.66;;;18.46
60003;BMP280;46322;52.018;8.702;2023-03-23T02:56:01;99016.03;;;18.43
60003;BMP280;46322;52.018;8.702;2023-03-23T03:01:14;98961.78;;;18.58
60003;BMP280;46322;52.018;8.702;2023-03-23T03:06:25;98984.50;;;18.20
60003;BMP280;46322;52.018;8.702;2023-03-23T03:11:27;98963.13;;;19.04
60003;BMP280;46322;52.018;8.702;2023-03-23T03:16:28;98981.06;;;18.84
60003;BMP280;46322;52.018;8.702;2023-03-23T03:21:31;98972.47;;;19.19
60003;BMP280;46322;52.018;8.702;2023-03-23T03:26:33;98979.63;;;19.53
60003;BMP280;46322;52.018;8.702;2023-03-23T03:31:35;98972.72;;;18.75
60003;BMP280;46322;52.018;8.702;2023-03-23T03:36:36;98963.13;;;19.27
60003;BMP280;46322;52.018;8.702;2023-03-23T03:41:37;98943.16;;;19.28
60003;BMP280;46322;52.018;8.702;2023-03-23T03:46:37;98952.00;;;18.14
60003;BMP280;46322;52.018;8.702;2023-03-23T03:51:38;98936.00;;;18.95
60003;BMP280;46322;52.018;8.702;2023-03-23T03:56:38;98939.88;;;18.63
60003;BMP280;46322;52.018;8.702;2023-03-23T04:01:38;98902.47;;;17.88
60003;BMP280;46322;52.018;8.702;2023-03-23T04:06:38;98910.63;;;18.99
60003;BMP280;46322;52.018;8.702;2023-03-23T04:11:39;98915.19;;;19.02
60003;BMP280;46322;52.018;8.702;2023-03-23T04:16:39;98923.84;;;19.37
60003;BMP280;46322;52.018;8.702;2023-03-23T04:21:39;98926.97;;;19.55
60003;BMP280;46322;52.018;8.702;2023-03-23T04:26:39;98937.06;;;19.24
60003;BMP280;46322;52.018;8.702;2023-03-23T04:31:39;98933.50;;;20.17
60003;BMP280;46322;52.018;8.702;2023-03-23T04:36:39;98927.34;;;19.57
60003;BMP280;46322;52.018;8.702;2023-03-23T04:41:40;98931.25;;;19.53
60003;BMP280;46322;52.018;8.702;2023-03-23T04:46:40;98938.56;;;18.48
60003;BMP280;46322;52.018;8.702;2023-03-23T04:51:40;98947.34;;;19.06
60003;BMP280;46322;52.018;8.702;2023-03-23T04:56:40;98951.78;;;19.63
60003;BMP280;46322;52.018;8.702;2023-03-23T05:01:40;98959.63;;;20.17
60003;BMP280;46322;52.018;8.702;2023-03-23T05:06:40;98964.47;;;18.89
60003;BMP280;46322;52.018;8.702;2023-03-23T05:11:41;98960.31;;;19.11
60003;BMP280;46322;52.018;8.702;2023-03-23T05:16:41;98960.69;;;19.83
60003;BMP280;46322;52.018;8.702;2023-03-23T05:21:41;98956.75;;;18.64
60003;BMP280;46322;52.018;8.702;2023-03-23T05:26:41;98958.22;;;19.69
60003;BMP280;46322;52.018;8.702;2023-03-23T05:31:41;98950.25;;;19.85
60003;BMP280;46322;52.018;8.702;2023-03-23T05:36:41;98935.19;;;19.48
60003;BMP280;46322;52.018;8.702;2023-03-23T05:41:41;98934.63;;;18.56
60003;BMP280;46322;52.018;8.702;2023-03-23T05:46:42;98928.81;;;18.88
60003;BMP280;46322;52.018;8.702;2023-03-23T05:51:45;98932.13;;;19.46
60003;BMP280;46322;52.018;8.702;2023-03-23T05:56:45;98934.38;;;18.74
60003;BMP280;46322;52.018;8.702;2023-03-23T06:01:45;98928.34;;;19.20
60003;BMP280;46322;52.018;8.702;2023-03-23T06:06:46;98941.91;;;18.56
60003;BMP280;46322;52.018;8.702;2023-03-23T06:11:46;98933.81;;;19.36
60003;BMP280;46322;52.018;8.702;2023-03-23T06:16:46;98973.31;;;20.06
60003;BMP280;46322;52.018;8.702;2023-03-23T06:21:46;98976.22;;;19.72
60003;BMP280;46322;52.018;8.702;2023-03-23T06:26:46;98975.97;;;18.28
60003;BMP280;46322;52.018;8.702;2023-03-23T06:31:48;98976.91;;;19.76
60003;BMP280;46322;52.018;8.702;2023-03-23T06:36:48;98981.09;;;18.77
60003;BMP280;46322;52.018;8.702;2023-03-23T06:41:49;98977.13;;;19.85
60003;BMP280;46322;52.018;8.702;2023-03-23T06:46:49;98989.69;;;19.49
60003;BMP280;46322;52.018;8.702;2023-03-23T06:51:49;98990.44;;;20.88
60003;BMP280;46322;52.018;8.702;2023-03-23T06:56:49;98982.91;;;20.27
60003;BMP280;46322;52.018;8.702;2023-03-23T07:01:49;98994.50;;;19.81
60003;BMP280;46322;52.018;8.702;2023-03-23T07:06:49;99005.78;;;19.95
60003;BMP280;46322;52.018;8.702;2023-03-23T07:11:50;99007.53;;;20.25
60003;BMP280;46322;52.018;8.702;2023-03-23T07:16:50;99005.25;;;20.44
60003;BMP280;46322;52.018;8.702;2023-03-23T07:21:50;99002.34;;;21.39
60003;BMP280;46322;52.018;8.702;2023-03-23T07:26:50;99009.78;;;21.35
60003;BMP280;46322;52.018;8.702;2023-03-23T07:31:50;99012.69;;;21.08
60003;BMP280;46322;52.018;8.702;2023-03-23T07:36:50;99019.78;;;20.66
60003;BMP280;46322;52.018;8.702;2023-03-23T07:41:51;99005.84;;;20.87
60003;BMP280;46322;52.018;8.702;2023-03-23T07:46:51;99011.44;;;20.21
60003;BMP280;46322;52.018;8.702;2023-03-23T07:51:51;99004.47;;;19.60
60003;BMP280;46322;52.018;8.702;2023-03-23T07:56:51;99016.63;;;21.03
60003;BMP280;46322;52.018;8.702;2023-03-23T08:01:51;99025.91;;;21.67
60003;BMP280;46322;52.018;8.702;2023-03-23T08:06:51;99028.75;;;20.95
60003;BMP280;46322;52.018;8.702;2023-03-23T08:11:51;99028.50;;;20.90
60003;BMP280;46322;52.018;8.702;2023-03-23T08:16:52;99037.19;;;19.98
60003;BMP280;46322;52.018;8.702;2023-03-23T08:21:52;99041.59;;;20.32
60003;BMP280;46322;52.018;8.702;2023-03-23T08:26:52;99031.72;;;20.45
60003;BMP280;46322;52.018;8.702;2023-03-23T08:31:52;99030.94;;;20.84
60003;BMP280;46322;52.018;8.702;2023-03-23T08:36:52;99026.72;;;21.35
60003;BMP280;46322;52.018;8.702;2023-03-23T08:41:53;99035.47;;;21.23
60003;BMP280;46322;52.018;8.702;2023-03-23T08:46:53;99042.34;;;20.72
60003;BMP280;46322;52.018;8.702;2023-03-23T08:51:53;99052.13;;;21.18
60003;BMP280;46322;52.018;8.702;2023-03-23T08:56:53;99040.06;;;21.06
60003;BMP280;46322;52.018;8.702;2023-03-23T09:01:53;99044.72;;;21.55
60003;BMP280;46322;52.018;8.702;2023-03-23T09:06:54;99060.53;;;20.48
60003;BMP280;46322;52.018;8.702;2023-03-23T09:11:55;99054.53;;;21.29
60003;BMP280;46322;52.018;8.702;2023-03-23T09:16:55;99065.31;;;21.29
60003;BMP280;46322;52.018;8.702;2023-03-23T09:21:55;99068.75;;;22.23
60003;BMP280;46322;52.018;8.702;2023-03-23T09:26:55;99070.09;;;20.89
60003;BMP280;46322;52.018;8.702;2023-03-23T09:31:55;99069.09;;;23.05
60003;BMP280;46322;52.018;8.702;2023-03-23T09:36:55;99078.75;;;21.65
60003;BMP280;46322;52.018;8.702;2023-03-23T09:42:04;99085.81;;;22.04
60003;BMP280;46322;52.018;8.702;2023-03-23T09:52:12;99112.69;;;21.78
60003;BMP280;46322;52.018;8.702;2023-03-23T09:57:24;99099.47;;;21.52
60003;BMP280;46322;52.018;8.702;2023-03-23T10:02:33;99101.38;;;22.00
60003;BMP280;46322;52.018;8.702;2023-03-23T10:07:36;99095.03;;;22.23
60003;BMP280;46322;52.018;8.702;2023-03-23T10:12:37;99112.53;;;21.53
60003;BMP280;46322;52.018;8.702;2023-03-23T10:17:50;99116.56;;;21.45
60003;BMP280;46322;52.018;8.702;2023-03-23T10:28:03;99088.31;;;23.19
60003;BMP280;46322;52.018;8.702;2023-03-23T10:33:38;99104.88;;;23.09
60003;BMP280;46322;52.018;8.702;2023-03-23T10:38:37;99085.66;;;24.45
60003;BMP280;46322;52.018;8.702;2023-03-23T10:43:39;99101.31;;;23.12
60003;BMP280;46322;52.018;8.702;2023-03-23T10:48:39;99079.22;;;24.08
60003;BMP280;46322;52.018;8.702;2023-03-23T10:53:42;99106.34;;;22.59
60003;BMP280;46322;52.018;8.702;2023-03-23T10:58:43;99112.88;;;23.00
60003;BMP280;46322;52.018;8.702;2023-03-23T11:03:44;99113.69;;;22.58
60003;BMP280;46322;52.018;8.702;2023-03-23T11:08:49;99125.53;;;21.58
60003;BMP280;46322;52.018;8.702;2023-03-23T11:13:57;99164.47;;;22.64
60003;BMP280;46322;52.018;8.702;2023-03-23T11:18:58;99185.50;;;19.74
60003;BMP280;46322;52.018;8.702;2023-03-23T11:23:59;99209.78;;;18.13
60003;BMP280;46322;52.018;8.702;2023-03-23T11:29:04;99211.47;;;18.48
60003;BMP280;46322;52.018;8.702;2023-03-23T11:34:09;99200.38;;;18.42
60003;BMP280;46322;52.018;8.702;2023-03-23T11:44:23;99200.50;;;19.44
60003;BMP280;46322;52.018;8.702;2023-03-23T11:49:30;99190.56;;;18.70
60003;BMP280;46322;52.018;8.702;2023-03-23T11:54:39;99210.41;;;19.17
60003;BMP280;46322;52.018;8.702;2023-03-23T11:59:40;99219.19;;;17.80
60003;BMP280;46322;52.018;8.702;2023-03-23T12:35:22;99202.91;;;19.65
60003;BMP280;46322;52.018;8.702;2023-03-23T12:51:06;99207.69;;;19.20
60003;BMP280;46322;52.018;8.702;2023-03-23T13:01:07;99190.97;;;19.40
60003;BMP280;46322;52.018;8.702;2023-03-23T13:06:15;99211.63;;;18.75
60003;BMP280;46322;52.018;8.702;2023-03-23T13:11:20;99219.00;;;18.67
60003;BMP280;46322;52.018;8.702;2023-03-23T13:21:43;99215.53;;;18.63
60003;BMP280;46322;52.018;8.702;2023-03-23T13:26:43;99209.59;;;18.82
60003;BMP280;46322;52.018;8.702;2023-03-23T13:31:44;99202.41;;;19.10
60003;BMP280;46322;52.018;8.702;2023-03-23T13:36:51;99208.25;;;18.63
60003;BMP280;46322;52.018;8.702;2023-03-23T13:47:14;99198.84;;;18.41
60003;BMP280;46322;52.018;8.702;2023-03-23T13:52:16;99204.47;;;18.98
60003;BMP280;46322;52.018;8.702;2023-03-23T13:57:36;99192.09;;;19.69
60003;BMP280;46322;52.018;8.702;2023-03-23T14:02:40;99190.97;;;18.23
60003;BMP280;46322;52.018;8.702;2023-03-23T14:07:54;99186.50;;;18.92
60003;BMP280;46322;52.018;8.702;2023-03-23T14:12:54;99186.78;;;18.67
60003;BMP280;46322;52.018;8.702;2023-03-23T14:17:54;99190.81;;;21.66
60003;BMP280;46322;52.018;8.702;2023-03-23T14:22:55;99194.38;;;19.44
60003;BMP280;46322;52.018;8.702;2023-03-23T14:27:55;99197.84;;;20.21
60003;BMP280;46322;52.018;8.702;2023-03-23T14:33:05;99202.75;;;19.15
60003;BMP280;46322;52.018;8.702;2023-03-23T14:38:06;99212.88;;;19.00
60003;BMP280;46322;52.018;8.702;2023-03-23T14:43:10;99207.44;;;20.89
60003;BMP280;46322;52.018;8.702;2023-03-23T14:48:14;99216.13;;;19.83
60003;BMP280;46322;52.018;8.702;2023-03-23T14:53:24;99207.38;;;19.45
60003;BMP280;46322;52.018;8.702;2023-03-23T14:58:24;99213.38;;;19.26
60003;BMP280;46322;52.018;8.702;2023-03-23T15:03:25;99196.56;;;22.16
60003;BMP280;46322;52.018;8.702;2023-03-23T15:08:26;99182.66;;;22.76
60003;BMP280;46322;52.018;8.702;2023-03-23T15:13:27;99226.41;;;22.42
60003;BMP280;46322;52.018;8.702;2023-03-23T15:18:32;99191.72;;;22.69
60003;BMP280;46322;52.018;8.702;2023-03-23T15:23:33;99202.09;;;23.50
60003;BMP280;46322;52.018;8.702;2023-03-23T15:28:39;99206.19;;;20.03
60003;BMP280;46322;52.018;8.702;2023-03-23T15:33:39;99216.56;;;19.48
60003;BMP280;46322;52.018;8.702;2023-03-23T15:38:42;99211.50;;;19.80
60003;BMP280;46322;52.018;8.702;2023-03-23T15:43:49;99200.00;;;21.68
60003;BMP280;46322;52.018;8.702;2023-03-23T15:53:56;99170.19;;;19.94
60003;BMP280;46322;52.018;8.702;2023-03-23T15:58:57;99175.88;;;22.10
60003;BMP280;46322;52.018;8.702;2023-03-23T16:04:03;99163.84;;;21.49
60003;BMP280;46322;52.018;8.702;2023-03-23T16:09:04;99156.22;;;20.49
60003;BMP280;46322;52.018;8.702;2023-03-23T16:14:04;99159.50;;;20.80
60003;BMP280;46322;52.018;8.702;2023-03-23T16:19:04;99155.38;;;20.09
60003;BMP280;46322;52.018;8.702;2023-03-23T16:24:05;99163.63;;;19.71
60003;BMP280;46322;52.018;8.702;2023-03-23T16:29:10;99162.41;;;20.26
60003;BMP280;46322;52.018;8.702;2023-03-23T16:34:11;99156.59;;;20.28
60003;BMP280;46322;52.018;8.702;2023-03-23T16:39:11;99174.41;;;19.71
60003;BMP280;46322;52.018;8.702;2023-03-23T16:44:11;99150.88;;;20.89
60003;BMP280;46322;52.018;8.702;2023-03-23T16:49:11;99151.91;;;19.85
60003;BMP280;46322;52.018;8.702;2023-03-23T16:54:11;99150.47;;;20.27
60003;BMP280;46322;52.018;8.702;2023-03-23T16:59:12;99169.56;;;20.13
60003;BMP280;46322;52.018;8.702;2023-03-23T17:04:15;99174.50;;;21.01
60003;BMP280;46322;52.018;8.702;2023-03-23T17:09:15;99160.34;;;19.30
60003;BMP280;46322;52.018;8.702;2023-03-23T17:14:15;99155.44;;;20.05
60003;BMP280;46322;52.018;8.702;2023-03-23T17:19:16;99158.78;;;19.32
60003;BMP280;46322;52.018;8.702;2023-03-23T17:24:16;99155.09;;;18.51
60003;BMP280;46322;52.018;8.702;2023-03-23T17:29:16;99167.75;;;18.88
60003;BMP280;46322;52.018;8.702;2023-03-23T17:34:16;99181.34;;;19.69
60003;BMP280;46322;52.018;8.702;2023-03-23T17:39:16;99196.00;;;19.04
60003;BMP280;46322;52.018;8.702;2023-03-23T17:44:16;99189.00;;;19.10
60003;BMP280;46322;52.018;8.702;2023-03-23T17:49:17;99221.38;;;18.95
60003;BMP280;46322;52.018;8.702;2023-03-23T17:54:17;99223.94;;;19.70
60003;BMP280;46322;52.018;8.702;2023-03-23T17:59:17;99222.81;;;19.68
60003;BMP280;46322;52.018;8.702;2023-03-23T18:04:17;99214.06;;;21.24
60003;BMP280;46322;52.018;8.702;2023-03-23T18:09:18;99203.03;;;20.55
60003;BMP280;46322;52.018;8.702;2023-03-23T18:14:18;99195.25;;;19.33
60003;BMP280;46322;52.018;8.702;2023-03-23T18:19:18;99196.72;;;19.38
60003;BMP280;46322;52.018;8.702;2023-03-23T18:24:18;99201.81;;;20.36
60003;BMP280;46322;52.018;8.702;2023-03-23T18:29:18;99199.00;;;19.70
60003;BMP280;46322;52.018;8.702;2023-03-23T18:34:18;99196.03;;;20.81
60003;BMP280;46322;52.018;8.702;2023-03-23T18:39:18;99195.56;;;19.39
60003;BMP280;46322;52.018;8.702;2023-03-23T18:44:19;99180.06;;;18.45
60003;BMP280;46322;52.018;8.702;2023-03-23T18:49:19;99174.78;;;18.75
60003;BMP280;46322;52.018;8.702;2023-03-23T18:54:19;99176.03;;;18.63
60003;BMP280;46322;52.018;8.702;2023-03-23T18:59:19;99174.44;;;18.32
60003;BMP280;46322;52.018;8.702;2023-03-23T19:04:19;99178.06;;;18.93
60003;BMP280;46322;52.018;8.702;2023-03-23T19:09:19;99160.13;;;19.17
60003;BMP280;46322;52.018;8.702;2023-03-23T19:14:20;99161.34;;;18.79
60003;BMP280;46322;52.018;8.702;2023-03-23T19:19:20;99153.72;;;18.32
60003;BMP280;46322;52.018;8.702;2023-03-23T19:24:20;99146.53;;;18.63
60003;BMP280;46322;52.018;8.702;2023-03-23T19:29:20;99137.78;;;18.11
60003;BMP280;46322;52.018;8.702;2023-03-23T19:34:21;99145.34;;;18.27
60003;BMP280;46322;52.018;8.702;2023-03-23T19:39:21;99133.44;;;17.80
60003;BMP280;46322;52.018;8.702;2023-03-23T19:44:21;99116.69;;;18.17
60003;BMP280;46322;52.018;8.702;2023-03-23T19:49:21;99113.19;;;17.72
60003;BMP280;46322;52.018;8.702;2023-03-23T19:54:21;99112.88;;;18.55
60003;BMP280;46322;52.018;8.702;2023-03-23T19:59:21;99107.06;;;17.71
60003;BMP280;46322;52.018;8.702;2023-03-23T20:04:22;99109.94;;;17.98
60003;BMP280;46322;52.018;8.702;2023-03-23T20:09:22;99107.34;;;17.84
60003;BMP280;46322;52.018;8.702;2023-03-23T20:14:22;99101.34;;;18.92
60003;BMP280;46322;52.018;8.702;2023-03-23T20:19:22;99109.19;;;18.80
60003;BMP280;46322;52.018;8.702;2023-03-23T20:24:22;99105.19;;;18.20
60003;BMP280;46322;52.018;8.702;2023-03-23T20:29:22;99089.53;;;18.52
60003;BMP280;46322;52.018;8.702;2023-03-23T20:34:22;99089.78;;;17.79
60003;BMP280;46322;52.018;8.702;2023-03-23T20:39:23;99080.91;;;18.30
60003;BMP280;46322;52.018;8.702;2023-03-23T20:44:24;99076.31;;;18.68
60003;BMP280;46322;52.018;8.702;2023-03-23T20:49:25;99079.75;;;17.90
60003;BMP280;46322;52.018;8.702;2023-03-23T20:54:25;99062.63;;;18.22
60003;BMP280;46322;52.018;8.702;2023-03-23T20:59:25;99068.31;;;17.86
60003;BMP280;46322;52.018;8.702;2023-03-23T21:04:26;99056.25;;;18.02
60003;BMP280;46322;52.018;8.702;2023-03-23T21:09:26;99044.22;;;18.24
60003;BMP280;46322;52.018;8.702;2023-03-23T21:14:26;99040.81;;;18.57
60003;BMP280;46322;52.018;8.702;2023-03-23T21:19:27;99040.38;;;18.62
60003;BMP280;46322;52.018;8.702;2023-03-23T21:24:28;99030.50;;;18.83
60003;BMP280;46322;52.018;8.702;2023-03-23T21:29:29;99029.59;;;18.28
60003;BMP280;46322;52.018;8.702;2023-03-23T21:34:44;99025.78;;;18.60
60003;BMP280;46322;52.018;8.702;2023-03-23T21:39:44;99022.41;;;18.86
60003;BMP280;46322;52.018;8.702;2023-03-23T21:44:44;99021.25;;;18.19
60003;BMP280;46322;52.018;8.702;2023-03-23T21:49:44;99013.94;;;17.86
60003;BMP280;46322;52.018;8.702;2023-03-23T21:54:45;99006.28;;;18.22
60003;BMP280;46322;52.018;8.702;2023-03-23T21:59:45;99002.59;;;17.68
60003;BMP280;46322;52.018;8.702;2023-03-23T22:04:45;98989.00;;;18.26
60003;BMP280;46322;52.018;8.702;2023-03-23T22:09:45;98979.00;;;17.96
60003;BMP280;46322;52.018;8.702;2023-03-23T22:14:45;98973.16;;;18.70
60003;BMP280;46322;52.018;8.702;2023-03-23T22:19:47;98965.56;;;18.30
60003;BMP280;46322;52.018;8.702;2023-03-23T22:24:47;98955.25;;;19.17
60003;BMP280;46322;52.018;8.702;2023-03-23T22:29:47;98942.56;;;19.41
60003;BMP280;46322;52.018;8.702;2023-03-23T22:34:48;98937.56;;;19.19
60003;BMP280;46322;52.018;8.702;2023-03-23T22:39:48;98925.97;;;18.42
60003;BMP280;46322;52.018;8.702;2023-03-23T22:44:48;98909.09;;;19.45
60003;BMP280;46322;52.018;8.702;2023-03-23T22:49:48;98892.94;;;18.48
60003;BMP280;46322;52.018;8.702;2023-03-23T22:54:48;98891.41;;;19.01
60003;BMP280;46322;52.018;8.702;2023-03-23T22:59:49;98895.50;;;19.56
60003;BMP280;46322;52.018;8.702;2023-03-23T23:04:49;98903.41;;;19.43
60003;BMP280;46322;52.018;8.702;2023-03-23T23:09:49;98898.84;;;18.66
60003;BMP280;46322;52.018;8.702;2023-03-23T23:14:49;98886.97;;;19.61
60003;BMP280;46322;52.018;8.702;2023-03-23T23:19:50;98881.44;;;19.68
60003;BMP280;46322;52.018;8.702;2023-03-23T23:24:50;98873.59;;;18.33
60003;BMP280;46322;52.018;8.702;2023-03-23T23:29:50;98877.31;;;18.70
60003;BMP280;46322;52.018;8.702;2023-03-23T23:34:50;98864.84;;;19.30
60003;BMP280;46322;52.018;8.702;2023-03-23T23:39:50;98873.25;;;17.97
60003;BMP280;46322;52.018;8.702;2023-03-23T23:44:50;98860.69;;;18.25
60003;BMP280;46322;52.018;8.702;2023-03-23T23:49:51;98868.44;;;18.73
60003;BMP280;46322;52.018;8.702;2023-03-23T23:54:51;98861.19;;;19.20
60003;BMP280;46322;52.018;8.702;2023-03-23T23:59:51;98867.50;;;19.53
